Time;durP1;ratioP1;P1;durP2;ratioP2;P2;SDS_P1;SDS_P2;PMS_P1;PMS_P2;Temp;Humidity;BMP_temperature;BMP_pressure;BME280_temperature;BME280_humidity;BME280_pressure;Samples;Min_cycle;Max_cycle;Signal;HPM_P1;HPM_P2
2023/05/08 00:01:05;;;;;;;8.70;7.72;;;;;;;15.06;100.00;101481.88;7791538;18;20009;-67
2023/05/08 00:03:34;;;;;;;8.82;8.05;;;;;;;14.80;100.00;101445.53;7784719;18;20022;-67
2023/05/08 00:06:04;;;;;;;8.18;7.47;;;;;;;14.85;100.00;101468.09;7789476;18;20010;-67
2023/05/08 00:08:31;;;;;;;8.18;7.55;;;;;;;14.98;100.00;101493.84;7787293;18;20102;-67
2023/05/08 00:10:57;;;;;;;9.25;8.35;;;;;;;14.99;100.00;101501.66;7791517;18;20642;-67
2023/05/08 00:13:23;;;;;;;8.38;7.78;;;;;;;14.87;100.00;101481.22;7790181;18;20005;-67
2023/05/08 00:15:50;;;;;;;8.20;7.53;;;;;;;14.86;100.00;101484.81;7791823;18;20427;-67
2023/05/08 00:18:16;;;;;;;7.93;7.30;;;;;;;14.53;100.00;101431.16;7790673;18;20052;-67
2023/05/08 00:20:42;;;;;;;9.25;8.35;;;;;;;15.00;100.00;101499.88;7791284;18;19994;-68
2023/05/08 00:23:09;;;;;;;9.40;7.90;;;;;;;15.02;100.00;101500.66;7788279;18;20446;-67
2023/05/08 00:25:35;;;;;;;8.85;7.80;;;;;;;14.48;100.00;101411.22;7791062;18;19997;-67
2023/05/08 00:28:02;;;;;;;12.18;7.53;;;;;;;14.43;100.00;101410.63;7790677;18;20036;-67
2023/05/08 00:30:28;;;;;;;8.85;8.10;;;;;;;14.64;100.00;101466.69;7790466;18;19994;-67
2023/05/08 00:32:54;;;;;;;11.38;8.80;;;;;;;14.93;100.00;101504.66;7788353;18;19998;-67
2023/05/08 00:35:21;;;;;;;10.18;9.20;;;;;;;14.76;100.00;101487.97;7790476;18;20009;-67
2023/05/08 00:37:47;;;;;;;10.05;8.88;;;;;;;14.90;100.00;101504.84;7790202;18;20025;-67
2023/05/08 00:40:14;;;;;;;9.73;8.73;;;;;;;14.87;100.00;101510.28;7790172;18;20013;-67
2023/05/08 00:42:41;;;;;;;8.38;7.65;;;;;;;14.84;100.00;101503.41;7790260;18;20619;-67
2023/05/08 00:45:08;;;;;;;9.60;8.65;;;;;;;14.86;100.00;101504.16;7790767;18;20006;-67
2023/05/08 00:47:34;;;;;;;9.27;8.48;;;;;;;14.68;100.00;101486.72;7788483;18;19998;-67
2023/05/08 00:50:01;;;;;;;8.70;8.02;;;;;;;14.46;100.00;101450.91;7789026;18;20006;-67
2023/05/08 00:52:30;;;;;;;8.65;8.02;;;;;;;14.84;100.00;101510.47;7790055;18;20065;-67
2023/05/08 00:54:56;;;;;;;9.73;7.97;;;;;;;14.84;100.00;101511.31;7789023;18;20000;-67
2023/05/08 00:57:23;;;;;;;8.82;7.95;;;;;;;14.84;100.00;101519.25;7788164;18;20017;-67
2023/05/08 00:59:51;;;;;;;8.73;7.85;;;;;;;14.84;100.00;101518.41;7789898;18;19998;-67
2023/05/08 01:02:18;;;;;;;8.18;7.43;;;;;;;14.85;100.00;101517.47;7789204;18;20041;-67
2023/05/08 01:04:45;;;;;;;8.23;7.63;;;;;;;14.86;100.00;101520.03;7789034;18;20002;-67
2023/05/08 01:07:13;;;;;;;8.32;7.72;;;;;;;14.87;100.00;101511.13;7791333;18;20016;-67
2023/05/08 01:09:40;;;;;;;9.85;8.95;;;;;;;14.57;100.00;101455.63;7790976;18;20610;-67
2023/05/08 01:12:19;;;;;;;8.70;7.95;;;;;;;14.57;100.00;101460.91;7789130;18;20016;-69
2023/05/08 01:14:53;;;;;;;8.60;7.90;;;;;;;14.91;100.00;101510.06;7791111;18;20004;-69
2023/05/08 01:17:37;;;;;;;9.68;8.80;;;;;;;14.51;100.00;101451.53;7790301;18;20020;-69
2023/05/08 01:20:22;;;;;;;8.98;8.10;;;;;;;14.84;100.00;101513.97;7788782;18;20024;-67
2023/05/08 01:23:07;;;;;;;8.93;8.13;;;;;;;14.80;100.00;101516.88;7790275;18;20405;-67
2023/05/08 01:26:00;;;;;;;12.20;8.55;;;;;;;14.04;100.00;101404.00;7791052;18;19998;-67
2023/05/08 01:28:32;;;;;;;9.40;8.55;;;;;;;14.70;100.00;101519.19;7788495;18;20585;-67
2023/05/08 01:30:58;;;;;;;8.73;8.00;;;;;;;14.60;100.00;101526.78;7791028;18;20002;-67
2023/05/08 01:33:40;;;;;;;8.15;7.45;;;;;;;14.22;100.00;101476.91;7789472;18;20495;-66
2023/05/08 01:36:34;;;;;;;9.00;8.02;;;;;;;14.50;100.00;101530.84;7792122;18;20009;-67
2023/05/08 01:39:13;;;;;;;9.13;8.27;;;;;;;14.21;100.00;101496.31;7791831;18;20005;-67
2023/05/08 01:41:47;;;;;;;9.82;8.73;;;;;;;14.40;100.00;101533.13;7792520;18;20020;-66
2023/05/08 01:44:21;;;;;;;9.75;8.10;;;;;;;14.03;100.00;101481.47;7789342;18;20050;-67
2023/05/08 01:46:49;;;;;;;8.82;8.02;;;;;;;14.40;100.00;101540.22;7793447;18;20076;-67
2023/05/08 01:49:28;;;;;;;12.80;7.63;;;;;;;14.30;100.00;101524.00;7790577;18;20005;-67
2023/05/08 01:52:04;;;;;;;9.07;7.90;;;;;;;14.25;100.00;101519.00;7793466;18;20057;-67
2023/05/08 01:54:38;;;;;;;11.05;8.90;;;;;;;14.38;100.00;101540.28;7789985;18;19998;-66
2023/05/08 01:57:08;;;;;;;8.93;7.93;;;;;;;14.10;100.00;101504.81;7792874;18;19994;-66
2023/05/08 01:59:37;;;;;;;9.90;8.90;;;;;;;14.17;100.00;101505.31;7791169;18;20013;-66
2023/05/08 02:02:05;;;;;;;9.40;8.50;;;;;;;14.01;100.00;101476.31;7789580;18;20012;-66
2023/05/08 02:04:33;;;;;;;9.48;8.57;;;;;;;14.44;100.00;101544.38;7788122;18;20375;-66
2023/05/08 02:07:01;;;;;;;9.32;8.43;;;;;;;14.34;100.00;101528.19;7792277;18;20029;-67
2023/05/08 02:09:30;;;;;;;9.43;8.45;;;;;;;14.27;100.00;101514.47;7790180;18;20065;-65
2023/05/08 02:11:59;;;;;;;10.18;8.48;;;;;;;14.51;100.00;101545.72;7792038;18;20009;-67
2023/05/08 02:14:28;;;;;;;8.57;7.88;;;;;;;14.23;100.00;101499.75;7788806;18;20006;-67
2023/05/08 02:16:56;;;;;;;9.40;8.52;;;;;;;14.28;100.00;101515.31;7788616;18;20010;-66
2023/05/08 02:19:26;;;;;;;8.15;7.45;;;;;;;14.50;100.00;101558.09;7790548;18;20068;-67
2023/05/08 02:21:56;;;;;;;7.82;7.22;;;;;;;14.49;100.00;101561.69;7790523;18;19998;-67
2023/05/08 02:24:24;;;;;;;11.10;8.82;;;;;;;14.28;100.00;101534.66;7791651;18;20006;-67
2023/05/08 02:26:53;;;;;;;10.10;8.55;;;;;;;14.25;100.00;101540.13;7791181;18;20004;-67
2023/05/08 02:29:22;;;;;;;8.35;7.65;;;;;;;14.54;100.00;101567.56;7790088;18;19998;-67
2023/05/08 02:31:51;;;;;;;8.65;7.80;;;;;;;14.55;100.00;101552.56;7796506;18;20001;-67
2023/05/08 02:34:19;;;;;;;9.73;7.70;;;;;;;14.62;100.00;101566.31;7805218;18;20606;-67
2023/05/08 02:36:47;;;;;;;8.00;7.20;;;;;;;14.26;100.00;101528.59;7799434;18;20003;-67
2023/05/08 02:39:16;;;;;;;8.00;7.35;;;;;;;14.50;100.00;101563.38;7794662;18;20641;-67
2023/05/08 02:41:43;;;;;;;7.55;6.95;;;;;;;14.47;100.00;101587.34;7796341;18;20679;-67
2023/05/08 02:44:11;;;;;;;8.70;7.80;;;;;;;13.56;100.00;101444.34;7795994;18;20347;-67
2023/05/08 02:46:38;;;;;;;8.13;7.43;;;;;;;14.48;100.00;101577.63;7796560;18;20013;-67
2023/05/08 02:49:21;;;;;;;7.90;7.25;;;;;;;14.55;100.00;101586.88;7794963;18;20022;-67
2023/05/08 02:51:56;;;;;;;8.23;7.53;;;;;;;14.10;100.00;101514.53;7795060;18;20659;-67
2023/05/08 02:54:34;;;;;;;7.45;6.93;;;;;;;13.63;100.00;101415.91;7794134;18;20014;-67
2023/05/08 02:57:09;;;;;;;8.02;7.30;;;;;;;14.24;100.00;101516.44;7796770;18;19993;-67
2023/05/08 02:59:45;;;;;;;8.10;7.40;;;;;;;14.55;100.00;101573.69;7792880;18;20006;-67
2023/05/08 03:02:20;;;;;;;7.43;6.72;;;;;;;14.26;100.00;101531.25;7795956;18;20000;-67
2023/05/08 03:04:58;;;;;;;7.10;6.60;;;;;;;14.35;100.00;101549.22;7794239;18;19994;-67
2023/05/08 03:07:27;;;;;;;8.77;8.05;;;;;;;14.09;100.00;101505.78;7796771;18;20057;-67
2023/05/08 03:10:04;;;;;;;7.55;6.85;;;;;;;14.32;100.00;101543.25;7843878;18;20006;-67
2023/05/08 03:12:34;;;;;;;8.75;7.68;;;;;;;14.33;100.00;101561.66;7795629;18;19993;-67
2023/05/08 03:15:07;;;;;;;7.88;7.18;;;;;;;14.24;100.00;101554.22;7794398;18;20096;-67
2023/05/08 03:17:35;;;;;;;10.02;7.45;;;;;;;14.01;100.00;101536.13;7801887;18;20069;-67
2023/05/08 03:20:05;;;;;;;7.45;6.85;;;;;;;14.23;100.00;101555.19;7843563;18;20001;-67
2023/05/08 03:22:35;;;;;;;8.32;7.30;;;;;;;14.27;100.00;101551.44;7836952;18;20073;-67
2023/05/08 03:25:05;;;;;;;6.90;6.40;;;;;;;14.21;100.00;101557.03;7795862;18;20773;-67
2023/05/08 03:27:34;;;;;;;7.43;6.72;;;;;;;14.15;100.00;101547.66;7802980;18;20010;-67
2023/05/08 03:30:03;;;;;;;8.15;7.35;;;;;;;13.99;100.00;101538.00;7846184;18;20057;-67
2023/05/08 03:32:31;;;;;;;7.55;6.88;;;;;;;14.16;100.00;101551.16;7797995;18;20005;-67
2023/05/08 03:34:59;;;;;;;7.88;7.18;;;;;;;14.03;100.00;101555.38;7796132;18;20002;-67
2023/05/08 03:37:28;;;;;;;7.88;7.22;;;;;;;12.96;100.00;101388.59;7800311;18;20002;-67
2023/05/08 03:39:55;;;;;;;7.75;7.05;;;;;;;13.87;100.00;101558.84;7844887;18;20001;-67
2023/05/08 03:42:25;;;;;;;7.93;6.78;;;;;;;13.51;100.00;101478.03;7838032;18;20085;-67
2023/05/08 03:44:52;;;;;;;7.22;6.63;;;;;;;13.08;100.00;101440.66;7793112;18;20568;-67
2023/05/08 03:47:20;;;;;;;7.05;6.43;;;;;;;13.99;100.00;101557.31;7794994;18;20057;-67
2023/05/08 03:49:48;;;;;;;8.10;7.30;;;;;;;13.65;100.00;101511.63;7840324;18;20005;-67
2023/05/08 03:52:15;;;;;;;8.00;7.20;;;;;;;13.79;100.00;101553.13;7839117;18;19998;-68
2023/05/08 03:54:42;;;;;;;7.75;7.07;;;;;;;13.71;100.00;101556.13;7792352;18;20378;-67
2023/05/08 03:57:08;;;;;;;8.02;6.93;;;;;;;13.72;100.00;101559.63;7789777;18;19998;-67
2023/05/08 03:59:49;;;;;;;7.07;6.57;;;;;;;13.62;100.00;101566.31;7789086;18;20005;-67
2023/05/08 04:02:27;;;;;;;7.65;7.05;;;;;;;13.57;100.00;101562.13;7791130;18;19994;-67
2023/05/08 04:05:01;;;;;;;7.68;7.07;;;;;;;13.32;100.00;101520.31;7840295;18;20021;-67
2023/05/08 04:07:46;;;;;;;7.57;6.93;;;;;;;13.46;100.00;101559.16;7831809;18;20064;-67
2023/05/08 04:10:22;;;;;;;8.45;7.68;;;;;;;13.46;100.00;101571.50;7791847;18;20021;-67
2023/05/08 04:13:01;;;;;;;7.95;7.00;;;;;;;12.79;100.00;101455.31;7802180;18;20001;-70
2023/05/08 04:15:31;;;;;;;8.73;7.72;;;;;;;13.49;100.00;101576.59;7840623;18;20064;-70
2023/05/08 04:18:11;;;;;;;8.27;7.55;;;;;;;13.02;100.00;101501.59;7824435;18;20017;-70
2023/05/08 04:20:43;;;;;;;6.95;6.45;;;;;;;13.04;100.00;101506.78;7790172;18;20020;-70
2023/05/08 04:23:14;;;;;;;7.65;7.05;;;;;;;13.13;100.00;101520.38;7809609;18;20017;-70
2023/05/08 04:25:41;;;;;;;7.97;7.25;;;;;;;13.15;100.00;101528.19;7838373;18;20566;-70
2023/05/08 04:28:10;;;;;;;9.65;7.40;;;;;;;13.23;100.00;101541.84;7819455;18;20006;-70
2023/05/08 04:30:38;;;;;;;7.50;6.90;;;;;;;13.22;100.00;101549.81;7791927;18;20072;-70
2023/05/08 04:33:05;;;;;;;7.13;6.50;;;;;;;13.55;100.00;101607.94;7808287;18;20007;-70
2023/05/08 04:35:33;;;;;;;7.38;6.78;;;;;;;13.43;100.00;101577.78;7841096;18;20005;-70
2023/05/08 04:37:59;;;;;;;12.52;7.57;;;;;;;13.51;100.00;101587.94;7825026;18;20407;-70
2023/05/08 04:40:25;;;;;;;7.82;6.55;;;;;;;13.74;100.00;101597.34;7790803;18;20064;-70
2023/05/08 04:42:52;;;;;;;8.18;7.47;;;;;;;13.42;100.00;101541.78;7802755;18;19990;-70
2023/05/08 04:45:19;;;;;;;8.88;7.97;;;;;;;13.24;100.00;101529.50;7838801;18;20009;-71
2023/05/08 04:47:45;;;;;;;10.20;7.70;;;;;;;13.67;100.00;101591.53;7827128;18;20057;-71
2023/05/08 04:50:12;;;;;;;9.93;8.30;;;;;;;13.70;100.00;101595.78;7790580;18;19998;-70
2023/05/08 04:52:38;;;;;;;7.32;6.80;;;;;;;13.74;100.00;101592.06;7798925;18;20635;-69
2023/05/08 04:55:05;;;;;;;8.52;7.60;;;;;;;13.71;100.00;101579.00;7838504;18;20627;-69
2023/05/08 04:57:32;;;;;;;8.60;7.90;;;;;;;13.80;100.00;101594.38;7831116;18;19997;-70
2023/05/08 04:59:59;;;;;;;16.92;7.57;;;;;;;13.84;100.00;101598.56;7791003;18;20067;-70
2023/05/08 05:02:25;;;;;;;7.47;6.80;;;;;;;13.94;100.00;101588.38;7793152;18;19998;-70
2023/05/08 05:04:52;;;;;;;8.35;6.75;;;;;;;13.95;100.00;101543.44;7795223;18;20016;-69
2023/05/08 05:07:19;;;;;;;10.52;8.98;;;;;;;13.87;100.00;101421.63;7833235;18;20049;-70
2023/05/08 05:09:45;;;;;;;8.30;7.50;;;;;;;15.19;100.00;101548.09;7789670;18;20010;-69
2023/05/08 05:12:12;;;;;;;7.95;7.25;;;;;;;16.11;100.00;101590.25;7790713;18;19990;-70
2023/05/08 05:14:38;;;;;;;7.70;7.00;;;;;;;15.60;100.00;101513.06;7790598;18;20004;-70
2023/05/08 05:17:04;;;;;;;8.23;7.60;;;;;;;14.61;100.00;101475.63;7791242;18;20010;-70
2023/05/08 05:19:31;;;;;;;7.50;6.90;;;;;;;15.29;100.00;101590.72;7790119;18;20006;-70
2023/05/08 05:21:58;;;;;;;7.80;7.13;;;;;;;14.80;100.00;101538.88;7791550;18;19998;-70
2023/05/08 05:24:25;;;;;;;9.30;7.75;;;;;;;14.87;100.00;101597.50;7787848;18;20005;-70
2023/05/08 05:26:51;;;;;;;9.13;8.32;;;;;;;14.63;100.00;101592.63;7789720;18;20008;-70
2023/05/08 05:29:17;;;;;;;7.70;7.03;;;;;;;14.05;100.00;101514.78;7789120;18;20586;-70
2023/05/08 05:31:44;;;;;;;7.88;7.28;;;;;;;14.47;100.00;101597.91;7791026;18;20672;-70
2023/05/08 05:34:11;;;;;;;7.75;7.15;;;;;;;14.18;100.00;101553.72;7789094;18;19990;-70
2023/05/08 05:36:37;;;;;;;9.40;8.15;;;;;;;14.53;100.00;101608.13;7789175;18;20068;-70
2023/05/08 05:39:04;;;;;;;7.90;7.20;;;;;;;14.55;100.00;101611.53;7789526;18;20644;-70
2023/05/08 05:41:30;;;;;;;8.13;7.38;;;;;;;14.54;100.00;101607.19;7790216;18;19997;-70
2023/05/08 05:43:57;;;;;;;7.55;6.88;;;;;;;14.37;100.00;101580.81;7789608;18;20076;-69
2023/05/08 05:46:31;;;;;;;8.00;7.20;;;;;;;14.35;100.00;101567.72;7790360;18;20079;-70
2023/05/08 05:48:57;;;;;;;8.43;7.63;;;;;;;14.14;100.00;101538.03;7789651;18;20002;-69
2023/05/08 05:51:24;;;;;;;7.28;6.78;;;;;;;14.72;100.00;101615.91;7788089;18;20066;-70
2023/05/08 05:53:50;;;;;;;8.30;7.60;;;;;;;14.72;100.00;101621.22;7786926;18;20008;-70
2023/05/08 05:56:17;;;;;;;8.85;7.93;;;;;;;14.74;100.00;101619.34;7789280;18;20732;-70
2023/05/08 05:58:44;;;;;;;8.48;7.72;;;;;;;14.73;100.00;101620.28;7786848;18;20485;-70
2023/05/08 06:01:10;;;;;;;9.85;7.78;;;;;;;14.76;100.00;101624.53;7789243;18;20418;-70
2023/05/08 06:03:37;;;;;;;9.25;7.85;;;;;;;14.70;100.00;101593.16;7788757;18;20636;-70
2023/05/08 06:06:04;;;;;;;10.40;8.13;;;;;;;14.73;100.00;101585.94;7789720;18;19998;-70
2023/05/08 06:08:30;;;;;;;8.45;7.72;;;;;;;15.14;100.00;101627.69;7787620;18;20002;-70
2023/05/08 06:10:57;;;;;;;8.63;7.93;;;;;;;14.82;100.00;101568.69;7789119;18;20011;-70
2023/05/08 06:13:24;;;;;;;9.75;7.90;;;;;;;14.21;100.00;101424.19;7789690;18;20006;-71
2023/05/08 06:15:55;;;;;;;8.43;7.65;;;;;;;15.08;100.00;101545.22;7790505;18;20006;-70
2023/05/08 06:18:21;;;;;;;9.02;8.13;;;;;;;15.28;100.00;101595.16;7790983;18;20753;-70
2023/05/08 06:20:48;;;;;;;8.88;8.07;;;;;;;15.46;100.00;101624.16;7785399;18;19997;-70
2023/05/08 06:23:14;;;;;;;8.35;7.68;;;;;;;15.42;100.00;101623.47;7788405;18;20645;-70
2023/05/08 06:25:40;;;;;;;10.30;8.43;;;;;;;15.56;100.00;101623.50;7790363;18;20523;-70
2023/05/08 06:28:07;;;;;;;8.35;7.57;;;;;;;15.69;100.00;101622.78;7786800;18;19986;-70
2023/05/08 06:30:33;;;;;;;8.48;7.65;;;;;;;15.43;100.00;101589.91;7790299;18;20441;-70
2023/05/08 06:33:00;;;;;;;8.55;7.70;;;;;;;15.65;100.00;101621.25;7787252;18;20001;-71
2023/05/08 06:35:26;;;;;;;9.43;8.50;;;;;;;15.86;100.00;101613.91;7790931;18;20037;-70
2023/05/08 06:37:53;;;;;;;8.40;7.60;;;;;;;15.65;100.00;101571.84;7791709;18;19998;-70
2023/05/08 06:40:19;;;;;;;8.43;7.60;;;;;;;16.10;100.00;101604.47;7791844;18;20058;-70
2023/05/08 06:42:46;;;;;;;8.98;8.13;;;;;;;16.15;100.00;101570.59;7787760;18;20001;-70
2023/05/08 06:45:12;;;;;;;7.93;7.30;;;;;;;16.46;100.00;101600.50;7789371;18;19998;-70
2023/05/08 06:47:39;;;;;;;8.77;7.93;;;;;;;16.46;100.00;101597.00;7789517;18;20017;-71
2023/05/08 06:50:06;;;;;;;8.85;8.02;;;;;;;16.46;100.00;101603.13;7790466;18;20001;-70
2023/05/08 06:52:32;;;;;;;8.50;7.75;;;;;;;16.42;100.00;101600.78;7789561;18;20068;-70
2023/05/08 06:54:59;;;;;;;8.65;7.80;;;;;;;16.13;100.00;101571.63;7788741;18;20423;-70
2023/05/08 06:57:28;;;;;;;8.27;7.55;;;;;;;16.05;100.00;101556.22;7787976;18;20002;-72
2023/05/08 06:59:55;;;;;;;9.00;8.05;;;;;;;16.06;100.00;101517.38;7787484;18;19994;-70
2023/05/08 07:02:21;;;;;;;9.38;8.45;;;;;;;16.78;100.00;101610.84;7787839;18;20052;-70
2023/05/08 07:04:48;;;;;;;8.77;7.93;;;;;;;16.75;100.00;101600.44;7825447;18;20009;-70
2023/05/08 07:07:17;;;;;;;8.73;7.93;;;;;;;16.88;100.00;101597.91;7788788;18;19998;-70
2023/05/08 07:09:43;;;;;;;11.20;8.45;;;;;;;16.98;100.00;101598.13;7785091;18;20365;-70
2023/05/08 07:12:09;;;;;;;9.38;8.57;;;;;;;16.95;100.00;101591.22;7789869;18;20001;-71
2023/05/08 07:14:36;;;;;;;8.65;7.72;;;;;;;16.07;100.00;101436.97;7835459;18;20634;-71
2023/05/08 07:17:06;;;;;;;10.25;8.82;;;;;;;16.91;99.39;101579.97;7836999;18;20009;-71
2023/05/08 07:19:35;;;;;;;8.55;7.78;;;;;;;16.73;98.01;101549.31;7796688;18;20068;-69
2023/05/08 07:22:02;;;;;;;7.85;7.25;;;;;;;16.98;98.47;101579.56;7839577;18;20057;-71
2023/05/08 07:24:28;;;;;;;8.85;8.15;;;;;;;16.42;98.39;101470.97;7793754;18;20329;-70
2023/05/08 07:26:55;;;;;;;10.18;9.13;;;;;;;16.73;97.76;101538.72;7790261;18;20008;-71
2023/05/08 07:29:21;;;;;;;8.05;7.28;;;;;;;17.12;98.02;101590.16;7833334;18;20010;-69
2023/05/08 07:31:48;;;;;;;18.17;16.95;;;;;;;17.18;97.48;101591.53;7751325;18;20319;-70
2023/05/08 07:34:14;;;;;;;9.43;8.52;;;;;;;16.95;96.85;101523.13;7728500;18;20014;-71
2023/05/08 07:36:41;;;;;;;7.80;7.13;;;;;;;17.51;96.51;101591.94;7792813;18;20001;-69
2023/05/08 07:39:08;;;;;;;8.82;8.02;;;;;;;17.70;95.40;101557.03;7828470;18;19998;-69
2023/05/08 07:41:35;;;;;;;9.25;8.23;;;;;;;18.04;92.89;101564.50;7840394;18;20013;-71
2023/05/08 07:44:02;;;;;;;9.55;8.43;;;;;;;18.49;90.65;101571.03;7803471;18;20018;-72
2023/05/08 07:46:29;;;;;;;9.60;8.75;;;;;;;18.69;87.22;101540.34;7791436;18;20018;-69
2023/05/08 07:48:55;;;;;;;10.18;9.27;;;;;;;18.72;85.92;101524.19;7823897;18;20001;-71
2023/05/08 07:51:22;;;;;;;9.23;8.07;;;;;;;18.51;85.56;101465.44;7839310;18;20502;-72
2023/05/08 07:53:49;;;;;;;9.10;8.20;;;;;;;18.91;84.45;101491.75;7807874;18;20021;-69
2023/05/08 07:56:16;;;;;;;8.60;7.90;;;;;;;19.28;82.72;101510.28;7793060;18;20334;-71
2023/05/08 07:58:46;;;;;;;9.82;8.90;;;;;;;19.48;81.09;101499.91;7819944;18;20010;-71
2023/05/08 08:01:13;;;;;;;10.50;8.77;;;;;;;19.28;80.50;101429.56;7840071;18;20013;-71
2023/05/08 08:03:39;;;;;;;9.30;8.50;;;;;;;19.70;79.04;101468.00;7809011;18;20037;-69
2023/05/08 08:06:06;;;;;;;11.68;8.63;;;;;;;19.86;77.71;101453.47;7791249;18;20113;-69
2023/05/08 08:08:32;;;;;;;9.68;8.77;;;;;;;19.33;76.11;101385.66;7815359;18;20005;-69
2023/05/08 08:10:59;;;;;;;10.05;9.10;;;;;;;19.44;78.34;101443.38;7835409;18;19997;-69
2023/05/08 08:13:28;;;;;;;10.02;9.05;;;;;;;19.19;77.74;101367.28;7814519;18;19998;-69
2023/05/08 08:15:56;;;;;;;9.30;8.38;;;;;;;19.52;77.07;101424.16;7791977;18;20031;-69
2023/05/08 08:18:22;;;;;;;10.50;9.43;;;;;;;19.59;77.20;101432.53;7812282;18;20073;-70
2023/05/08 08:20:48;;;;;;;9.20;8.45;;;;;;;19.31;78.56;101419.53;7836399;18;20022;-70
2023/05/08 08:23:16;;;;;;;9.13;8.23;;;;;;;18.95;78.36;101354.06;7816356;18;20001;-70
2023/05/08 08:25:42;;;;;;;9.02;8.18;;;;;;;19.21;78.04;101369.81;7789088;18;20075;-69
2023/05/08 08:28:08;;;;;;;10.63;8.68;;;;;;;19.06;78.87;101371.84;7806177;18;20512;-70
2023/05/08 08:30:35;;;;;;;8.45;7.82;;;;;;;19.69;79.43;101429.00;7837253;18;19998;-70
2023/05/08 08:33:02;;;;;;;12.25;8.13;;;;;;;19.52;78.67;101390.41;7820481;18;20005;-70
2023/05/08 08:35:29;;;;;;;8.50;7.78;;;;;;;19.03;78.32;101284.31;7789101;18;20005;-70
2023/05/08 08:37:56;;;;;;;8.68;7.90;;;;;;;20.03;74.63;101364.22;7835776;18;19989;-70
2023/05/08 08:40:22;;;;;;;7.93;7.32;;;;;;;19.99;73.58;101317.50;7838296;18;20005;-70
2023/05/08 08:42:49;;;;;;;10.90;8.27;;;;;;;19.99;72.74;101328.16;7827028;18;20362;-70
2023/05/08 08:45:15;;;;;;;7.65;7.05;;;;;;;20.43;73.42;101369.78;7789837;18;20010;-71
2023/05/08 08:47:44;;;;;;;7.97;7.43;;;;;;;20.46;72.19;101356.16;7799787;18;20422;-70
2023/05/08 08:50:13;;;;;;;8.23;7.43;;;;;;;20.26;71.61;101336.50;7838267;18;20062;-70
2023/05/08 08:52:54;;;;;;;9.18;7.30;;;;;;;20.49;72.58;101353.25;7796509;18;20001;-70
2023/05/08 08:55:24;;;;;;;7.63;7.03;;;;;;;20.29;71.67;101300.78;7838415;18;20001;-69
2023/05/08 08:58:02;;;;;;;7.80;7.20;;;;;;;20.94;69.74;101328.16;7796380;18;20009;-70
2023/05/08 09:00:31;;;;;;;7.63;7.05;;;;;;;21.11;68.96;101316.03;7837707;18;20014;-70
2023/05/08 09:02:58;;;;;;;8.07;7.47;;;;;;;20.96;68.71;101302.19;7822472;18;20049;-70
2023/05/08 09:05:25;;;;;;;7.97;7.30;;;;;;;20.66;68.45;101261.19;7791095;18;20001;-70
2023/05/08 09:07:55;;;;;;;8.20;7.55;;;;;;;20.85;68.68;101268.44;7788274;18;20496;-70
2023/05/08 09:10:23;;;;;;;7.57;6.97;;;;;;;21.43;66.69;101281.19;7788359;18;19994;-72
2023/05/08 09:12:50;;;;;;;9.50;7.43;;;;;;;21.37;66.50;101263.03;7798532;18;20007;-70
2023/05/08 09:15:16;;;;;;;7.55;7.05;;;;;;;21.25;66.24;101251.59;7838673;18;20025;-70
2023/05/08 09:17:43;;;;;;;7.35;6.82;;;;;;;21.72;65.58;101267.06;7828738;18;20042;-70
2023/05/08 09:20:10;;;;;;;7.97;7.28;;;;;;;21.71;65.06;101222.63;7790060;18;20012;-70
2023/05/08 09:22:37;;;;;;;7.78;7.18;;;;;;;21.23;65.13;101173.50;7795662;18;20064;-70
2023/05/08 09:25:05;;;;;;;8.68;7.70;;;;;;;20.89;65.52;101160.47;7837041;18;20515;-70
2023/05/08 09:27:32;;;;;;;7.72;7.13;;;;;;;21.07;66.65;101229.22;7790051;18;20005;-70
2023/05/08 09:30:03;;;;;;;7.68;7.18;;;;;;;21.12;66.50;101240.31;7790070;18;20014;-70
2023/05/08 09:32:30;;;;;;;8.00;7.32;;;;;;;20.88;66.74;101209.47;7794309;18;19998;-70
2023/05/08 09:34:58;;;;;;;7.63;7.03;;;;;;;20.62;68.05;101249.09;7796501;18;20018;-70
2023/05/08 09:37:25;;;;;;;11.75;7.10;;;;;;;20.80;69.32;101280.50;7835487;18;19999;-69
2023/05/08 09:39:53;;;;;;;8.27;7.47;;;;;;;20.82;68.47;101207.34;7789842;18;20008;-71
2023/05/08 09:42:20;;;;;;;8.32;7.63;;;;;;;20.97;66.59;101180.28;7792728;18;20061;-69
2023/05/08 09:44:48;;;;;;;7.82;7.28;;;;;;;21.98;66.12;101245.13;7836966;18;20084;-69
2023/05/08 09:47:17;;;;;;;7.38;6.88;;;;;;;22.15;63.61;101174.91;7838261;18;20009;-69
2023/05/08 09:50:10;;;;;;;7.88;7.28;;;;;;;22.18;63.51;101198.69;7789950;18;20364;-69
2023/05/08 09:52:37;;;;;;;;;;;;;;;22.11;63.61;101178.88;7789842;18;20071;-71
2023/05/08 09:55:09;;;;;;;8.30;7.60;;;;;;;21.71;63.17;101147.84;7837913;18;19911;-70
2023/05/08 09:57:39;;;;;;;7.90;7.30;;;;;;;21.77;63.50;101198.03;7789502;18;20010;-69
2023/05/08 10:00:08;;;;;;;7.70;7.20;;;;;;;22.23;64.11;101220.50;7792133;18;20422;-70
2023/05/08 10:02:37;;;;;;;7.50;6.80;;;;;;;21.41;62.59;101060.63;7832109;18;20009;-70
2023/05/08 10:05:21;;;;;;;7.72;7.13;;;;;;;20.96;63.82;101101.22;7837634;18;20057;-69
2023/05/08 10:07:48;;;;;;;7.50;7.00;;;;;;;22.24;63.94;101240.91;7825954;18;20017;-71
2023/05/08 10:10:22;;;;;;;7.57;7.07;;;;;;;21.92;62.01;101142.31;7790462;18;20645;-69
2023/05/08 10:12:48;;;;;;;8.65;7.95;;;;;;;22.06;61.63;101173.94;7798407;18;20061;-70
2023/05/08 10:15:15;;;;;;;7.60;7.10;;;;;;;21.59;62.04;101130.25;7838426;18;20006;-70
2023/05/08 10:17:49;;;;;;;7.95;7.15;;;;;;;20.95;61.82;101044.38;7829432;18;20520;-70
2023/05/08 10:20:19;;;;;;;7.95;7.35;;;;;;;21.11;62.47;101098.03;7790091;18;19998;-69
2023/05/08 10:22:48;;;;;;;8.15;7.45;;;;;;;21.35;63.90;101232.09;7800480;18;20013;-70
2023/05/08 10:25:21;;;;;;;7.35;6.85;;;;;;;21.50;63.49;101214.72;7837782;18;19997;-70
2023/05/08 10:27:56;;;;;;;7.60;7.10;;;;;;;21.39;61.86;101156.94;7825967;18;20358;-69
2023/05/08 10:30:25;;;;;;;7.07;6.57;;;;;;;22.06;61.06;101213.19;7787542;18;20094;-69
2023/05/08 10:32:57;;;;;;;7.60;6.95;;;;;;;22.25;61.20;101206.97;7801536;18;19997;-71
2023/05/08 10:35:24;;;;;;;6.60;6.10;;;;;;;22.16;60.02;101178.44;7796711;18;20012;-71
2023/05/08 10:37:52;;;;;;;6.80;6.30;;;;;;;21.93;58.43;101098.59;7825977;18;19998;-69
2023/05/08 10:40:20;;;;;;;6.95;6.47;;;;;;;21.98;58.93;101151.59;7792697;18;20415;-70
2023/05/08 10:42:47;;;;;;;6.90;6.50;;;;;;;21.74;59.57;101184.09;7788645;18;20008;-70
2023/05/08 10:45:14;;;;;;;7.03;6.55;;;;;;;21.58;60.12;101216.72;7788403;18;19998;-71
2023/05/08 10:47:50;;;;;;;9.48;6.85;;;;;;;21.81;60.40;101236.84;7798878;18;20011;-69
2023/05/08 10:50:35;;;;;;;8.15;7.15;;;;;;;21.65;61.04;101241.84;7836970;18;20011;-70
2023/05/08 10:53:14;;;;;;;7.55;7.05;;;;;;;21.56;61.86;101253.41;7797249;18;20049;-69
2023/05/08 10:55:45;;;;;;;7.30;6.63;;;;;;;21.37;60.87;101203.41;7840642;18;19998;-70
2023/05/08 10:58:13;;;;;;;7.40;6.78;;;;;;;21.76;60.63;101203.50;7821294;18;20004;-69
2023/05/08 11:00:52;;;;;;;7.53;7.03;;;;;;;22.64;59.58;101260.41;7791775;18;20005;-70
2023/05/08 11:03:20;;;;;;;7.80;7.10;;;;;;;22.88;58.53;101281.31;7810921;18;20049;-70
2023/05/08 11:05:59;;;;;;;8.15;7.55;;;;;;;22.58;57.36;101186.91;7839959;18;20067;-70
2023/05/08 11:08:27;;;;;;;8.30;7.68;;;;;;;22.06;59.63;101231.91;7798355;18;20457;-70
2023/05/08 11:11:00;;;;;;;8.35;7.75;;;;;;;21.81;60.98;101278.72;7797845;18;19994;-70
2023/05/08 11:13:37;;;;;;;7.72;7.20;;;;;;;21.83;60.49;101255.38;7795311;18;20008;-69
2023/05/08 11:16:05;;;;;;;8.10;7.50;;;;;;;21.67;61.33;101280.00;7799095;18;20032;-69
2023/05/08 11:18:32;;;;;;;7.88;7.25;;;;;;;21.59;61.04;101261.13;7814857;18;19998;-69
2023/05/08 11:21:13;;;;;;;7.90;7.30;;;;;;;21.63;61.08;101289.22;7792134;18;20025;-70
2023/05/08 11:23:39;;;;;;;7.72;7.05;;;;;;;21.61;61.32;101277.84;7819800;18;20386;-70
2023/05/08 11:26:12;;;;;;;8.30;7.60;;;;;;;21.73;60.73;101254.53;7840486;18;20012;-69
2023/05/08 11:28:56;;;;;;;8.07;7.47;;;;;;;21.76;62.09;101332.56;7812257;18;20503;-70